Ozark Regional Airport
KBPK : now visible

Airfield :











YOU CAN JOIN US ON...

 
LOGIN :

Register | Disclaimer

   EN    FR    IT 

 









Legend :    VFR   Marginal VFR   IFR   Intensive IFR   Very Intensive IFR
Visi :
Ceiling :
>= 8 km
>= 3000ft
5 to 8 km
1000 to 3000 ft
1500m to 5 km
500 to 1000 ft
800 to 1500m
200 to 500 ft
< 800m
< 200 ft
Symbols :   Thunderstorms  Fog  Heavy snow  Heavy precipitations  Wind > 20 kt






- Airport Elevation : 928 ft


KBPK - Ozark Regional

CURRENT METAR :
  • 250753Z AUTO VRB03KT 10SM OVC023 01/M02 A3008 RMK AO2 SLP193 T00111022

EXPIRED METARs :
  • 250653Z AUTO 33004KT 10SM OVC026 01/M02 A3007 RMK AO2 SLP187 T00111022
  • 250608Z AUTO VRB04KT 10SM BKN019 BKN024 OVC030 01/M02 A3008 RMK AO2 T00111017
  • 250553Z AUTO VRB04KT 10SM SCT017 OVC030 01/M01 A3008 RMK AO2 SLP192 T00111011 10011 20011 400280011 51010

TAF KBPK
Valid from the 25 at 06:00 until the 26 at 06:00 UTC


250539Z 2506/2606 33007KT P6SM BKN015 OVC025
FM250900 30004KT P6SM BKN020 OVC050
FM251600 27005KT P6SM FEW100 SCT250
FM260100 14004KT P6SM BKN100



MET'MAP, your aeronautical weather chart ! - Copyright ORBIFLY December 2007 - Disclaimer

ORBIFLY MET'MAP TEAM :

Programming & Development : Alexandra Zaïnal
Concept & original design : Baudouin d'Aumeries
Assistance for programming : Marc-Olivier Méhu
Technical & hardware support : Manuel Goepfert

Contact : metmap@orbifly.com




SOURCES & CREDITS :

   NOAA       Earth
Advisory